Lake Leelanau, Michigan
Current Conditions -  °F | °C
As of 6:53 AM on Friday 28 Nov 2014 (Local Time) from KTVC Reporting Station
Broken Clouds Broken Clouds  
Wind Chill: -12°   Ceiling: 3300
Heat Index: -8°   Visibility: 10mi
Dew Point: -11°   Wind: 5mph
Humidity: 78%   Direction: 180°S
Pressure: 30.26"   Gusts: NA
Location:  44.98°N, 85.71°W
Report Text: KTVC 281153Z 18004KT 10SM FEW024 BKN033 BKN120 M08/M11 A3026 RMK AO2 SLP258 FIRST AUGMENTED OBS OF DAY 4/004 60000 T10781111 11072 21083 58014
Loading
Personal Weather Stations






























Interactive Weather Map New forecast layout! Learn more

10-Day Weather Forecast

Advertisements
Track Severe Weather on mobile